createdAt,value
2019-04-04T00:01:50.382Z,3.40
2019-04-04T00:04:21.850Z,3.50
2019-04-04T00:06:49.916Z,3.47
2019-04-04T00:09:18.836Z,4.17
2019-04-04T00:11:47.726Z,4.03
2019-04-04T00:14:16.651Z,4.40
2019-04-04T00:16:46.781Z,4.07
2019-04-04T00:19:16.128Z,3.93
2019-04-04T00:21:45.074Z,3.97
2019-04-04T00:24:13.966Z,4.20
2019-04-04T00:26:42.928Z,3.90
2019-04-04T00:29:11.836Z,3.90
2019-04-04T00:31:40.748Z,4.83
2019-04-04T00:34:09.660Z,4.43
2019-04-04T00:36:38.682Z,4.50
2019-04-04T00:39:09.433Z,4.83
2019-04-04T00:41:38.944Z,4.50
2019-04-04T00:44:07.838Z,4.60
2019-04-04T00:46:36.796Z,4.60
2019-04-04T00:49:05.683Z,4.50
2019-04-04T00:51:34.582Z,4.47
2019-04-04T00:54:03.539Z,4.67
2019-04-04T00:56:32.502Z,4.70
2019-04-04T00:59:01.390Z,4.10
2019-04-04T01:01:30.339Z,4.47
2019-04-04T01:04:00.622Z,4.97
2019-04-04T01:06:29.892Z,4.90
2019-04-04T01:08:58.801Z,4.77
2019-04-04T01:11:27.764Z,5.43
2019-04-04T01:13:57.903Z,5.07
2019-04-04T01:16:27.333Z,5.40
2019-04-04T01:18:56.216Z,5.83
2019-04-04T01:21:25.102Z,5.57
2019-04-04T01:23:54.279Z,5.67
2019-04-04T01:26:23.168Z,6.03
2019-04-04T01:28:53.137Z,6.07
2019-04-04T01:31:22.058Z,5.77
2019-04-04T01:33:51.715Z,5.50
2019-04-04T01:36:20.751Z,6.30
2019-04-04T01:38:49.685Z,6.70
2019-04-04T01:41:18.573Z,6.63
2019-04-04T01:43:47.468Z,6.67
2019-04-04T01:46:17.977Z,7.33
2019-04-04T01:48:48.019Z,7.67
2019-04-04T01:51:17.473Z,7.10
2019-04-04T01:53:47.433Z,7.57
2019-04-04T01:56:28.840Z,8.00
2019-04-04T01:58:57.735Z,6.93
2019-04-04T02:01:26.691Z,7.77
2019-04-04T02:03:55.797Z,7.97
2019-04-04T02:06:24.684Z,7.53
2019-04-04T02:08:53.596Z,7.50
2019-04-04T02:11:22.497Z,7.27
2019-04-04T02:13:51.454Z,7.77
2019-04-04T02:16:20.347Z,8.53
2019-04-04T02:18:49.240Z,7.80
2019-04-04T02:21:18.174Z,8.23
2019-04-04T02:23:47.082Z,8.93
2019-04-04T02:26:15.971Z,8.50
2019-04-04T02:28:44.879Z,8.93
2019-04-04T02:31:14.254Z,9.03
2019-04-04T02:33:43.305Z,9.10
2019-04-04T02:36:16.192Z,8.83
2019-04-04T02:38:42.815Z,9.17
2019-04-04T02:41:15.187Z,9.03
2019-04-04T02:43:42.400Z,9.43
2019-04-04T02:46:12.313Z,9.00
2019-04-04T02:48:41.335Z,9.60
2019-04-04T02:51:10.284Z,10.47
2019-04-04T02:53:39.190Z,10.47
2019-04-04T02:56:08.079Z,11.00
2019-04-04T02:58:37.021Z,11.63
2019-04-04T03:01:05.914Z,13.83
2019-04-04T03:03:34.883Z,13.20
2019-04-04T03:06:03.866Z,12.13
2019-04-04T03:08:36.659Z,12.33
2019-04-04T03:11:03.530Z,13.30
2019-04-04T03:13:32.752Z,11.10
2019-04-04T03:16:01.652Z,10.83
2019-04-04T03:18:30.622Z,10.67
2019-04-04T03:20:59.717Z,10.97
2019-04-04T03:23:32.991Z,10.07
2019-04-04T03:25:59.287Z,9.83
2019-04-04T03:28:31.357Z,10.47
2019-04-04T03:31:02.931Z,10.17
2019-04-04T03:33:32.325Z,9.77
2019-04-04T03:36:01.223Z,9.20
2019-04-04T03:38:30.312Z,9.50
2019-04-04T03:40:59.219Z,9.23
2019-04-04T03:43:28.118Z,8.17
2019-04-04T03:46:00.373Z,7.47
2019-04-04T03:48:27.621Z,7.80
2019-04-04T03:50:57.471Z,7.67
2019-04-04T03:53:26.736Z,7.90
2019-04-04T03:55:59.956Z,7.50
2019-04-04T03:58:27.896Z,7.60
2019-04-04T04:00:56.842Z,7.47
2019-04-04T04:03:26.809Z,7.37
2019-04-04T04:05:55.773Z,6.90
2019-04-04T04:08:24.726Z,6.33
2019-04-04T04:10:53.703Z,5.63
2019-04-04T04:13:22.595Z,5.30
2019-04-04T04:15:51.568Z,4.53
2019-04-04T04:18:21.621Z,3.90
2019-04-04T04:20:50.920Z,4.00
2019-04-04T04:23:22.976Z,4.63
2019-04-04T04:25:50.407Z,3.77
2019-04-04T04:28:20.150Z,2.93
2019-04-04T04:30:49.712Z,2.80
2019-04-04T04:33:18.601Z,2.70
2019-04-04T04:35:47.547Z,2.90
2019-04-04T04:38:16.427Z,2.20
2019-04-04T04:40:47.451Z,2.60
2019-04-04T04:43:16.105Z,2.67
2019-04-04T04:45:45.265Z,2.60
2019-04-04T04:48:14.380Z,2.20
2019-04-04T04:50:44.244Z,2.10
2019-04-04T04:53:13.205Z,2.10
2019-04-04T04:55:42.095Z,1.90
2019-04-04T04:58:11.237Z,2.10
2019-04-04T05:00:40.298Z,1.60
2019-04-04T05:03:09.188Z,1.23
2019-04-04T05:05:38.087Z,1.30
2019-04-04T05:08:09.674Z,1.00
2019-04-04T05:10:37.616Z,1.10
2019-04-04T05:13:06.508Z,0.67
2019-04-04T05:15:35.435Z,0.70
2019-04-04T05:18:04.505Z,0.70
2019-04-04T05:20:33.465Z,0.63
2019-04-04T05:23:02.393Z,0.60
2019-04-04T05:25:31.902Z,0.70
2019-04-04T05:28:00.820Z,0.60
2019-04-04T05:30:29.818Z,0.57
2019-04-04T05:32:58.772Z,0.50
2019-04-04T05:35:27.668Z,0.40
2019-04-04T05:37:56.604Z,0.50
2019-04-04T05:40:25.550Z,0.40
2019-04-04T05:42:54.443Z,0.30
2019-04-04T05:45:23.352Z,0.53
2019-04-04T05:47:55.064Z,0.40
2019-04-04T05:50:22.831Z,0.60
2019-04-04T05:52:51.860Z,0.50
2019-04-04T05:55:20.826Z,0.60
2019-04-04T05:57:50.940Z,0.60
2019-04-04T06:00:20.526Z,0.50
2019-04-04T06:02:49.500Z,0.50
2019-04-04T06:05:18.495Z,0.40
2019-04-04T06:07:47.383Z,0.40
2019-04-04T06:10:18.605Z,0.40
2019-04-04T06:12:47.170Z,0.30
2019-04-04T06:15:16.211Z,0.50
2019-04-04T06:17:45.122Z,0.60
2019-04-04T06:20:15.086Z,0.30
2019-04-04T06:22:44.475Z,0.80
2019-04-04T06:25:13.429Z,0.63
2019-04-04T06:27:42.307Z,0.70
2019-04-04T06:30:11.373Z,0.60
2019-04-04T06:32:40.501Z,0.80
2019-04-04T06:35:09.461Z,0.90
2019-04-04T06:37:38.973Z,0.83
2019-04-04T06:40:08.110Z,1.10
2019-04-04T06:42:37.219Z,0.70
2019-04-04T06:45:06.343Z,1.00
2019-04-04T06:47:35.240Z,0.80
2019-04-04T06:50:07.135Z,0.80
2019-04-04T06:52:35.335Z,1.10
2019-04-04T06:55:05.318Z,0.93
2019-04-04T06:57:36.615Z,1.07
2019-04-04T07:00:06.441Z,1.10
2019-04-04T07:02:35.402Z,1.63
2019-04-04T07:05:06.869Z,1.40
2019-04-04T07:07:36.149Z,1.17
2019-04-04T07:10:05.310Z,1.10
2019-04-04T07:12:37.849Z,1.40
2019-04-04T07:15:06.351Z,1.30
2019-04-04T07:17:35.320Z,1.10
2019-04-04T07:20:07.180Z,5.50
2019-04-04T07:22:36.220Z,21.80
2019-04-04T07:25:06.690Z,1.60
2019-04-04T07:27:35.805Z,1.50
2019-04-04T07:30:05.833Z,1.40
2019-04-04T07:32:34.735Z,1.50
2019-04-04T07:35:04.315Z,1.77
2019-04-04T07:37:33.307Z,1.60
2019-04-04T07:40:03.530Z,1.43
2019-04-04T07:42:33.005Z,1.80
2019-04-04T07:45:01.902Z,2.67
2019-04-04T07:47:31.918Z,1.77
2019-04-04T07:50:00.946Z,2.10
2019-04-04T07:52:32.776Z,2.03
2019-04-04T07:55:00.597Z,1.70
2019-04-04T07:57:30.222Z,1.80
2019-04-04T07:59:59.417Z,2.27
2019-04-04T08:02:28.354Z,2.23
2019-04-04T08:04:57.251Z,2.60
2019-04-04T08:07:26.138Z,2.40
2019-04-04T08:09:55.045Z,2.70
2019-04-04T08:12:24.325Z,2.30
2019-04-04T08:14:53.217Z,2.93
2019-04-04T08:17:22.128Z,2.33
2019-04-04T08:19:59.608Z,2.67
2019-04-04T08:22:21.797Z,3.17
2019-04-04T08:24:50.787Z,2.30
2019-04-04T08:27:19.677Z,2.73
2019-04-04T08:29:49.623Z,3.03
2019-04-04T08:32:18.674Z,4.03
2019-04-04T08:34:47.570Z,3.70
2019-04-04T08:37:16.463Z,4.70
2019-04-04T08:39:45.403Z,5.80
2019-04-04T08:42:14.306Z,5.40
2019-04-04T08:44:43.191Z,5.50
2019-04-04T08:47:12.285Z,5.13
2019-04-04T08:49:41.171Z,5.47
2019-04-04T08:52:16.483Z,5.47
2019-04-04T08:54:40.680Z,5.50
2019-04-04T08:57:09.567Z,4.67
2019-04-04T08:59:38.453Z,4.33
2019-04-04T09:02:07.361Z,3.80
2019-04-04T09:04:36.316Z,4.20
2019-04-04T09:07:05.207Z,3.50
2019-04-04T09:09:34.759Z,3.87
2019-04-04T09:12:17.085Z,4.23
2019-04-04T09:14:45.990Z,3.70
2019-04-04T09:17:14.877Z,4.77
2019-04-04T09:19:43.778Z,3.80
2019-04-04T09:22:12.722Z,3.50
2019-04-04T09:24:41.607Z,3.87
2019-04-04T09:27:10.497Z,4.33
2019-04-04T09:29:39.436Z,4.20
2019-04-04T09:32:08.414Z,3.40
2019-04-04T09:34:37.318Z,3.37
2019-04-04T09:37:08.646Z,3.30
2019-04-04T09:39:36.812Z,3.40
2019-04-04T09:42:05.705Z,2.70
2019-04-04T09:44:34.629Z,2.83
2019-04-04T09:47:05.520Z,2.97
2019-04-04T09:49:34.280Z,2.73
2019-04-04T09:52:03.201Z,2.73
2019-04-04T09:54:32.092Z,2.70
2019-04-04T09:57:01.051Z,2.40
2019-04-04T09:59:30.019Z,2.20
2019-04-04T10:01:58.910Z,2.30
2019-04-04T10:04:27.862Z,2.27
2019-04-04T10:06:56.830Z,2.13
2019-04-04T10:09:26.787Z,1.80
2019-04-04T10:11:55.744Z,2.53
2019-04-04T10:14:24.726Z,2.30
2019-04-04T10:16:53.619Z,2.03
2019-04-04T10:19:22.516Z,2.40
2019-04-04T10:21:51.453Z,2.57
2019-04-04T10:24:20.330Z,2.30
2019-04-04T10:26:49.290Z,2.53
2019-04-04T10:29:18.223Z,2.60
2019-04-04T10:31:47.117Z,2.60
2019-04-04T10:34:17.065Z,2.60
2019-04-04T10:36:46.137Z,2.27
2019-04-04T10:39:28.038Z,2.40
2019-04-04T10:41:45.695Z,2.50
2019-04-04T10:44:14.623Z,2.50
2019-04-04T10:46:43.586Z,1.97
2019-04-04T10:49:12.484Z,2.60
2019-04-04T10:51:41.408Z,2.37
2019-04-04T10:54:10.316Z,2.37
2019-04-04T10:56:39.273Z,2.73
2019-04-04T10:59:08.370Z,2.47
2019-04-04T11:01:38.420Z,2.50
2019-04-04T11:04:07.313Z,2.47
2019-04-04T11:06:36.230Z,2.13
2019-04-04T11:09:05.890Z,2.33
2019-04-04T11:11:35.346Z,1.87
2019-04-04T11:14:04.328Z,2.40
2019-04-04T11:16:33.212Z,1.90
2019-04-04T11:19:02.125Z,2.10
2019-04-04T11:21:31.082Z,2.23
2019-04-04T11:24:00.046Z,2.50
2019-04-04T11:26:28.983Z,2.80
2019-04-04T11:28:57.879Z,2.70
2019-04-04T11:31:26.763Z,2.33
2019-04-04T11:33:55.675Z,2.37
2019-04-04T11:36:24.566Z,2.00
2019-04-04T11:38:53.593Z,2.20
2019-04-04T11:41:23.761Z,1.77
2019-04-04T11:43:52.653Z,2.23
2019-04-04T11:46:21.545Z,2.10
2019-04-04T11:48:50.452Z,2.63
2019-04-04T11:51:19.336Z,2.80
2019-04-04T11:53:48.239Z,2.20
2019-04-04T11:56:17.160Z,2.00
2019-04-04T11:58:46.049Z,2.00
2019-04-04T12:01:16.579Z,2.00
2019-04-04T12:03:45.484Z,2.20
2019-04-04T12:06:14.373Z,2.20
2019-04-04T12:08:43.265Z,2.87
2019-04-04T12:11:12.273Z,2.03
2019-04-04T12:13:41.168Z,2.23
2019-04-04T12:16:10.068Z,2.33
2019-04-04T12:18:38.969Z,2.00
2019-04-04T12:21:07.858Z,1.70
2019-04-04T12:23:36.743Z,1.60
2019-04-04T12:26:05.671Z,1.53
2019-04-04T12:28:34.556Z,1.73
2019-04-04T12:31:04.031Z,1.93
2019-04-04T12:33:32.944Z,1.73
2019-04-04T12:36:01.838Z,1.57
2019-04-04T12:38:30.730Z,1.53
2019-04-04T12:40:59.649Z,1.47
2019-04-04T12:43:28.526Z,1.33
2019-04-04T12:45:57.539Z,1.20
2019-04-04T12:48:26.467Z,1.90
2019-04-04T12:50:55.356Z,1.47
2019-04-04T12:53:24.250Z,1.60
2019-04-04T12:55:54.352Z,1.20
2019-04-04T12:58:23.446Z,1.60
2019-04-04T13:00:52.345Z,1.70
2019-04-04T13:03:22.576Z,1.37
2019-04-04T13:05:51.640Z,1.43
2019-04-04T13:08:20.688Z,1.80
2019-04-04T13:10:49.577Z,1.50
2019-04-04T13:13:18.480Z,1.70
2019-04-04T13:15:47.372Z,1.30
2019-04-04T13:18:16.260Z,1.50
2019-04-04T13:20:45.218Z,1.70
2019-04-04T13:23:14.109Z,1.50
2019-04-04T13:25:43.077Z,1.83
2019-04-04T13:28:12.065Z,2.00
2019-04-04T13:30:40.947Z,1.63
2019-04-04T13:33:09.840Z,1.93
2019-04-04T13:35:38.904Z,1.93
2019-04-04T13:38:07.807Z,1.90
2019-04-04T13:40:45.467Z,1.23
2019-04-04T13:43:07.408Z,1.30
2019-04-04T13:45:36.412Z,1.20
2019-04-04T13:48:05.376Z,1.70
2019-04-04T13:50:34.294Z,1.60
2019-04-04T13:53:03.354Z,1.60
2019-04-04T13:55:32.247Z,1.70
2019-04-04T13:58:01.209Z,1.60
2019-04-04T14:00:30.127Z,2.43
2019-04-04T14:03:00.605Z,3.67
2019-04-04T14:05:29.497Z,4.20
2019-04-04T14:08:00.760Z,3.30
2019-04-04T14:10:29.009Z,3.17
2019-04-04T14:12:57.900Z,3.10
2019-04-04T14:15:26.917Z,3.03
2019-04-04T14:17:55.820Z,2.97
2019-04-04T14:20:24.699Z,2.73
2019-04-04T14:22:53.609Z,2.10
2019-04-04T14:25:22.546Z,2.67
2019-04-04T14:27:51.439Z,2.57
2019-04-04T14:30:20.421Z,3.20
2019-04-04T14:32:49.538Z,1.77
2019-04-04T14:35:18.427Z,2.00
2019-04-04T14:37:47.324Z,1.90
2019-04-04T14:40:16.262Z,1.73
2019-04-04T14:42:45.153Z,1.90
2019-04-04T14:45:14.041Z,2.03
2019-04-04T14:47:42.952Z,2.30
2019-04-04T14:50:11.915Z,2.03
2019-04-04T14:52:41.881Z,1.70
2019-04-04T14:55:10.855Z,1.60
2019-04-04T14:57:39.756Z,1.80
2019-04-04T15:00:10.352Z,1.80
2019-04-04T15:02:39.284Z,1.70
2019-04-04T15:05:08.543Z,1.70
2019-04-04T15:07:37.501Z,1.80
2019-04-04T15:10:07.604Z,1.70
2019-04-04T15:12:36.493Z,1.97
2019-04-04T15:15:06.263Z,1.93
2019-04-04T15:17:35.261Z,1.77
2019-04-04T15:20:07.415Z,1.47
2019-04-04T15:22:36.411Z,1.77
2019-04-04T15:25:05.369Z,1.83
2019-04-04T15:27:34.263Z,1.87
2019-04-04T15:30:03.754Z,1.60
2019-04-04T15:32:32.771Z,1.63
2019-04-04T15:35:01.675Z,1.80
2019-04-04T15:37:30.619Z,1.80
2019-04-04T15:39:59.513Z,1.90
2019-04-04T15:42:28.405Z,1.77
2019-04-04T15:44:57.327Z,1.60
2019-04-04T15:47:26.219Z,1.40
2019-04-04T15:49:55.118Z,1.80
2019-04-04T15:52:24.089Z,1.90
2019-04-04T15:54:52.999Z,1.50
2019-04-04T15:57:21.920Z,1.80
2019-04-04T15:59:50.857Z,1.70
2019-04-04T16:02:19.820Z,2.20
2019-04-04T16:04:48.704Z,2.83
2019-04-04T16:07:17.767Z,3.53
2019-04-04T16:09:46.741Z,4.50
2019-04-04T16:12:15.612Z,1.80
2019-04-04T16:14:44.563Z,2.17
2019-04-04T16:17:13.455Z,2.13
2019-04-04T16:19:42.349Z,2.60
2019-04-04T16:22:12.361Z,3.17
2019-04-04T16:24:41.321Z,2.37
2019-04-04T16:27:10.241Z,2.20
2019-04-04T16:29:39.156Z,2.13
2019-04-04T16:32:08.051Z,2.10
2019-04-04T16:34:36.935Z,2.63
2019-04-04T16:37:05.881Z,2.30
2019-04-04T16:39:35.440Z,2.37
2019-04-04T16:42:04.440Z,2.40
2019-04-04T16:44:33.365Z,2.70
2019-04-04T16:47:02.248Z,2.33
2019-04-04T16:49:31.157Z,2.90
2019-04-04T16:52:00.386Z,3.10
2019-04-04T16:54:30.509Z,3.07
2019-04-04T16:56:59.398Z,3.10
2019-04-04T16:59:28.322Z,3.07
2019-04-04T17:01:57.250Z,3.10
2019-04-04T17:04:26.428Z,3.07
2019-04-04T17:06:55.349Z,3.30
2019-04-04T17:09:24.243Z,3.07
2019-04-04T17:11:53.307Z,3.10
2019-04-04T17:14:22.284Z,3.13
2019-04-04T17:16:51.167Z,3.30
2019-04-04T17:19:20.054Z,3.20
2019-04-04T17:21:48.982Z,3.30
2019-04-04T17:24:17.937Z,3.20
2019-04-04T17:26:46.824Z,3.73
2019-04-04T17:29:15.878Z,3.70
2019-04-04T17:31:44.849Z,3.63
2019-04-04T17:34:13.732Z,3.43
2019-04-04T17:36:42.830Z,3.80
2019-04-04T17:39:11.793Z,4.23
2019-04-04T17:41:40.757Z,4.10
2019-04-04T17:44:29.527Z,4.10
2019-04-04T17:46:58.744Z,4.63
2019-04-04T17:49:28.268Z,4.83
2019-04-04T17:51:57.221Z,5.27
2019-04-04T17:54:26.105Z,5.87
2019-04-04T17:56:55.073Z,4.83
2019-04-04T17:59:23.964Z,4.97
2019-04-04T18:01:52.844Z,5.10
2019-04-04T18:04:21.775Z,5.77
2019-04-04T18:06:50.667Z,4.70
2019-04-04T18:09:31.208Z,5.10
2019-04-04T18:11:50.253Z,4.87
2019-04-04T18:14:19.240Z,4.00
2019-04-04T18:16:48.135Z,4.47
2019-04-04T18:19:17.070Z,4.63
2019-04-04T18:21:45.950Z,4.50
2019-04-04T18:24:14.914Z,4.47
2019-04-04T18:26:43.844Z,4.80
2019-04-04T18:29:25.750Z,4.60
2019-04-04T18:31:54.748Z,4.67
2019-04-04T18:34:23.643Z,4.87
2019-04-04T18:36:53.054Z,5.20
2019-04-04T18:39:23.081Z,4.73
2019-04-04T18:41:51.990Z,4.83
2019-04-04T18:44:20.875Z,5.90
2019-04-04T18:46:49.890Z,5.50
2019-04-04T18:49:18.782Z,5.10
2019-04-04T18:51:47.687Z,5.77
2019-04-04T18:54:16.626Z,5.60
2019-04-04T18:56:45.577Z,5.37
2019-04-04T18:59:14.457Z,6.27
2019-04-04T19:01:44.597Z,5.67
2019-04-04T19:04:13.481Z,5.60
2019-04-04T19:06:42.375Z,6.97
2019-04-04T19:09:15.267Z,6.27
2019-04-04T19:11:43.726Z,6.87
2019-04-04T19:14:12.609Z,6.53
2019-04-04T19:16:41.519Z,6.60
2019-04-04T19:19:10.479Z,6.60
2019-04-04T19:21:39.403Z,6.90
2019-04-04T19:24:08.690Z,7.20
2019-04-04T19:26:38.019Z,7.60
2019-04-04T19:29:06.984Z,6.90
2019-04-04T19:31:35.907Z,6.77
2019-04-04T19:34:04.876Z,7.30
2019-04-04T19:36:33.838Z,7.20
2019-04-04T19:39:04.411Z,8.10
2019-04-04T19:41:33.779Z,8.40
2019-04-04T19:44:02.725Z,9.00
2019-04-04T19:46:36.924Z,8.90
2019-04-04T19:49:02.239Z,9.63
2019-04-04T19:51:31.133Z,9.93
2019-04-04T19:54:00.041Z,8.83
2019-04-04T19:56:28.947Z,9.47
2019-04-04T19:58:57.871Z,10.83
2019-04-04T20:01:26.903Z,9.77
2019-04-04T20:03:55.882Z,10.50
2019-04-04T20:06:24.871Z,9.63
2019-04-04T20:08:53.860Z,10.63
2019-04-04T20:11:22.827Z,10.87
2019-04-04T20:13:53.283Z,10.33
2019-04-04T20:16:22.357Z,10.10
2019-04-04T20:18:51.286Z,11.13
2019-04-04T20:21:20.258Z,9.83
2019-04-04T20:23:49.148Z,10.67
2019-04-04T20:26:19.124Z,10.70
2019-04-04T20:28:48.056Z,11.57
2019-04-04T20:31:16.952Z,11.50
2019-04-04T20:33:45.853Z,12.17
2019-04-04T20:36:14.793Z,11.37
2019-04-04T20:38:43.821Z,12.43
2019-04-04T20:41:12.932Z,11.20
2019-04-04T20:43:43.602Z,11.17
2019-04-04T20:46:12.670Z,11.47
2019-04-04T20:48:41.570Z,11.73
2019-04-04T20:51:10.501Z,12.67
2019-04-04T20:53:39.400Z,12.80
2019-04-04T20:56:08.373Z,14.50
2019-04-04T20:58:37.310Z,15.03
2019-04-04T21:01:06.206Z,15.33
2019-04-04T21:03:35.373Z,15.03
2019-04-04T21:06:04.377Z,16.20
2019-04-04T21:08:33.275Z,15.20
2019-04-04T21:11:02.182Z,15.23
2019-04-04T21:13:34.346Z,14.60
2019-04-04T21:16:03.259Z,12.80
2019-04-04T21:18:32.172Z,14.17
2019-04-04T21:21:01.121Z,13.40
2019-04-04T21:23:30.014Z,14.13
2019-04-04T21:25:58.945Z,13.60
2019-04-04T21:28:27.880Z,13.47
2019-04-04T21:30:58.950Z,12.97
2019-04-04T21:33:27.847Z,12.63
2019-04-04T21:35:56.918Z,13.23
2019-04-04T21:38:25.811Z,13.40
2019-04-04T21:40:54.799Z,14.30
2019-04-04T21:43:23.710Z,11.97
2019-04-04T21:45:52.648Z,13.47
2019-04-04T21:48:22.589Z,13.17
2019-04-04T21:50:51.485Z,13.17
2019-04-04T21:53:20.413Z,13.67
2019-04-04T21:55:49.328Z,12.97
2019-04-04T21:58:18.295Z,14.03
2019-04-04T22:00:47.454Z,14.03
2019-04-04T22:03:16.597Z,14.63
2019-04-04T22:05:45.625Z,14.43
2019-04-04T22:08:14.595Z,15.50
2019-04-04T22:10:43.788Z,15.70
2019-04-04T22:13:12.880Z,15.20
2019-04-04T22:15:41.849Z,15.03
2019-04-04T22:18:10.747Z,15.20
2019-04-04T22:20:39.750Z,14.63
2019-04-04T22:23:08.750Z,16.43
2019-04-04T22:25:37.724Z,15.40
2019-04-04T22:28:06.638Z,17.63
2019-04-04T22:30:35.536Z,16.27
2019-04-04T22:33:04.439Z,17.10
2019-04-04T22:35:34.532Z,17.00
2019-04-04T22:38:03.501Z,17.07
2019-04-04T22:40:32.409Z,16.43
2019-04-04T22:43:01.411Z,18.27
2019-04-04T22:45:30.382Z,16.77
2019-04-04T22:47:59.352Z,17.13
2019-04-04T22:50:28.388Z,16.47
2019-04-04T22:52:57.283Z,18.80
2019-04-04T22:55:26.648Z,17.93
2019-04-04T22:57:55.886Z,18.30
2019-04-04T23:00:24.848Z,19.80
2019-04-04T23:02:53.924Z,18.43
2019-04-04T23:05:22.867Z,17.77
2019-04-04T23:07:51.773Z,18.80
2019-04-04T23:10:20.700Z,19.60
2019-04-04T23:12:49.609Z,20.50
2019-04-04T23:15:18.511Z,19.17
2019-04-04T23:17:47.478Z,20.63
2019-04-04T23:20:16.400Z,19.17
2019-04-04T23:22:52.741Z,17.27
2019-04-04T23:25:15.979Z,17.97
2019-04-04T23:27:44.883Z,14.30
2019-04-04T23:30:13.981Z,16.70
2019-04-04T23:32:42.875Z,16.37
2019-04-04T23:35:11.850Z,16.00
2019-04-04T23:37:40.897Z,14.47
2019-04-04T23:40:10.060Z,15.90
2019-04-04T23:42:38.968Z,13.87
2019-04-04T23:45:08.033Z,13.80
2019-04-04T23:47:42.556Z,12.93
2019-04-04T23:50:07.628Z,13.07
2019-04-04T23:52:36.570Z,11.27
2019-04-04T23:55:05.735Z,12.33
2019-04-04T23:57:34.720Z,12.37
